GLO1717 SBSV-SBBR
Flight info
| Callsign | GLO1717 |
|---|---|
| Flight time | 1h 36m |
| Altitude | 38000 |
| Route | ARNOX UZ17 DALMU |
| Aircraft | B738/M-SDFGIKLORWXY/LB1 |
Departure
| Time | 2026-05-08 18:46 |
|---|---|
| Airport | Deputado Luiz Eduardo Magalhães International Airport (SBSV) |
Arrival
| Time | 2026-05-08 20:22 |
|---|---|
| Airport | Presidente Juscelino Kubitschek International Airport (SBBR) |
| Time | Latitude | Longitude | Altitude | Speed | Heading |
|---|---|---|---|---|---|
| 2026-05-08 18:30 | -12.91338 | -38.33271 | 40 ft | 0 kts | 174° |
| 2026-05-08 18:40 | -12.91336 | -38.33271 | 43 ft | 2 kts | 174° |
| 2026-05-08 18:40 | -12.91314 | -38.33274 | 40 ft | 3 kts | 175° |
| 2026-05-08 18:40 | -12.91291 | -38.33270 | 39 ft | 4 kts | 224° |
| 2026-05-08 18:40 | -12.91278 | -38.33248 | 42 ft | 3 kts | 256° |
| 2026-05-08 18:41 | -12.91276 | -38.33240 | 43 ft | 0 kts | 257° |
| 2026-05-08 18:42 | -12.91276 | -38.33241 | 43 ft | 0 kts | 257° |
| 2026-05-08 18:43 | -12.91279 | -38.33255 | 41 ft | 4 kts | 257° |
| 2026-05-08 18:43 | -12.91276 | -38.33304 | 43 ft | 9 kts | 310° |
| 2026-05-08 18:43 | -12.91219 | -38.33337 | 43 ft | 10 kts | 310° |
| 2026-05-08 18:43 | -12.91188 | -38.33396 | 43 ft | 9 kts | 297° |
| 2026-05-08 18:44 | -12.91149 | -38.33448 | 42 ft | 9 kts | 312° |
| 2026-05-08 18:44 | -12.91110 | -38.33479 | 43 ft | 6 kts | 23° |
| 2026-05-08 18:44 | -12.91098 | -38.33455 | 42 ft | 0 kts | 79° |
| 2026-05-08 18:45 | -12.91087 | -38.33399 | 42 ft | 30 kts | 79° |
| 2026-05-08 18:45 | -12.90997 | -38.32953 | 43 ft | 96 kts | 78° |
| 2026-05-08 18:45 | -12.90823 | -38.32088 | 46 ft | 150 kts | 78° |
| 2026-05-08 18:45 | -12.90592 | -38.30901 | 260 ft | 178 kts | 81° |
| 2026-05-08 18:46 | -12.90357 | -38.29693 | 1101 ft | 168 kts | 82° |
| 2026-05-08 18:46 | -12.90140 | -38.28512 | 1714 ft | 173 kts | 83° |
| 2026-05-08 18:46 | -12.90037 | -38.27241 | 2118 ft | 192 kts | 105° |
| 2026-05-08 18:46 | -12.90836 | -38.26108 | 2289 ft | 212 kts | 150° |
| 2026-05-08 18:47 | -12.92325 | -38.25793 | 2538 ft | 232 kts | 184° |
| 2026-05-08 18:47 | -12.93897 | -38.26426 | 2789 ft | 261 kts | 219° |
| 2026-05-08 18:47 | -12.95020 | -38.27933 | 3375 ft | 272 kts | 234° |
| 2026-05-08 18:47 | -12.96062 | -38.29560 | 4102 ft | 275 kts | 234° |
| 2026-05-08 18:48 | -12.97114 | -38.31208 | 4867 ft | 277 kts | 234° |
| 2026-05-08 18:48 | -12.98175 | -38.32875 | 5579 ft | 280 kts | 234° |
| 2026-05-08 18:48 | -12.99244 | -38.34556 | 6335 ft | 282 kts | 234° |
| 2026-05-08 18:48 | -13.00324 | -38.36253 | 6991 ft | 286 kts | 235° |
| 2026-05-08 18:49 | -13.01420 | -38.37974 | 7602 ft | 291 kts | 235° |
| 2026-05-08 18:49 | -13.02508 | -38.39741 | 8227 ft | 296 kts | 242° |
| 2026-05-08 18:49 | -13.03109 | -38.41773 | 8860 ft | 301 kts | 259° |
| 2026-05-08 18:49 | -13.03484 | -38.43893 | 9555 ft | 302 kts | 260° |
| 2026-05-08 18:50 | -13.03850 | -38.46019 | 10194 ft | 306 kts | 260° |
| 2026-05-08 18:50 | -13.04230 | -38.48199 | 10419 ft | 324 kts | 260° |
| 2026-05-08 18:50 | -13.04648 | -38.50550 | 10561 ft | 345 kts | 260° |
| 2026-05-08 18:50 | -13.05095 | -38.53027 | 10710 ft | 363 kts | 260° |
| 2026-05-08 18:51 | -13.05572 | -38.55637 | 10823 ft | 380 kts | 259° |
| 2026-05-08 18:51 | -13.06072 | -38.58354 | 10968 ft | 394 kts | 259° |
| 2026-05-08 18:51 | -13.06586 | -38.61141 | 11292 ft | 401 kts | 259° |
| 2026-05-08 18:51 | -13.07107 | -38.63960 | 11787 ft | 403 kts | 260° |
| 2026-05-08 18:52 | -13.07628 | -38.66782 | 12308 ft | 405 kts | 260° |
| 2026-05-08 18:52 | -13.08154 | -38.69635 | 12783 ft | 408 kts | 260° |
| 2026-05-08 18:52 | -13.08683 | -38.72507 | 13243 ft | 412 kts | 260° |
| 2026-05-08 18:52 | -13.09223 | -38.75398 | 13724 ft | 415 kts | 260° |
| 2026-05-08 18:53 | -13.09785 | -38.78306 | 14168 ft | 418 kts | 259° |
| 2026-05-08 18:53 | -13.10361 | -38.81240 | 14661 ft | 419 kts | 259° |
| 2026-05-08 18:53 | -13.10939 | -38.84175 | 15173 ft | 420 kts | 259° |
| 2026-05-08 18:53 | -13.11518 | -38.87122 | 15633 ft | 423 kts | 259° |
| 2026-05-08 18:54 | -13.12097 | -38.90082 | 16091 ft | 425 kts | 260° |
| 2026-05-08 18:54 | -13.12678 | -38.93058 | 16576 ft | 426 kts | 260° |
| 2026-05-08 18:54 | -13.13258 | -38.96040 | 17045 ft | 427 kts | 260° |
| 2026-05-08 18:54 | -13.13841 | -38.99040 | 17454 ft | 430 kts | 259° |
| 2026-05-08 18:55 | -13.15015 | -39.05083 | 18339 ft | 433 kts | 259° |
| 2026-05-08 18:55 | -13.15606 | -39.08127 | 18668 ft | 436 kts | 259° |
| 2026-05-08 18:55 | -13.16198 | -39.11187 | 18982 ft | 439 kts | 259° |
| 2026-05-08 18:56 | -13.16795 | -39.14268 | 19368 ft | 440 kts | 259° |
| 2026-05-08 18:56 | -13.17391 | -39.17345 | 19733 ft | 441 kts | 259° |
| 2026-05-08 18:56 | -13.17988 | -39.20434 | 20055 ft | 443 kts | 258° |
| 2026-05-08 18:56 | -13.18589 | -39.23542 | 20368 ft | 445 kts | 258° |
| 2026-05-08 18:57 | -13.19192 | -39.26662 | 20710 ft | 446 kts | 258° |
| 2026-05-08 18:57 | -13.19592 | -39.28732 | 20925 ft | 447 kts | 258° |
| 2026-05-08 18:57 | -13.20403 | -39.32934 | 21336 ft | 450 kts | 258° |
| 2026-05-08 18:57 | -13.21010 | -39.36085 | 21636 ft | 452 kts | 258° |
| 2026-05-08 18:58 | -13.21621 | -39.39257 | 21928 ft | 453 kts | 257° |
| 2026-05-08 18:58 | -13.22232 | -39.42435 | 22214 ft | 455 kts | 257° |
| 2026-05-08 18:58 | -13.22847 | -39.45629 | 22493 ft | 457 kts | 257° |
| 2026-05-08 18:58 | -13.23462 | -39.48831 | 22757 ft | 458 kts | 257° |
| 2026-05-08 18:59 | -13.24080 | -39.52047 | 23022 ft | 460 kts | 257° |
| 2026-05-08 18:59 | -13.24700 | -39.55275 | 23267 ft | 462 kts | 257° |
| 2026-05-08 18:59 | -13.25322 | -39.58517 | 23515 ft | 463 kts | 257° |
| 2026-05-08 18:59 | -13.25944 | -39.61768 | 23714 ft | 465 kts | 257° |
| 2026-05-08 19:00 | -13.26569 | -39.65030 | 23904 ft | 467 kts | 257° |
| 2026-05-08 19:00 | -13.27196 | -39.68305 | 24118 ft | 468 kts | 257° |
| 2026-05-08 19:00 | -13.27821 | -39.71575 | 24344 ft | 468 kts | 257° |
| 2026-05-08 19:00 | -13.28471 | -39.74849 | 24556 ft | 468 kts | 254° |
| 2026-05-08 19:01 | -13.29557 | -39.77983 | 24737 ft | 466 kts | 244° |
| 2026-05-08 19:01 | -13.30943 | -39.80986 | 24932 ft | 466 kts | 242° |
| 2026-05-08 19:01 | -13.32360 | -39.83988 | 25095 ft | 468 kts | 242° |
| 2026-05-08 19:01 | -13.33750 | -39.87014 | 25254 ft | 470 kts | 243° |
| 2026-05-08 19:02 | -13.35087 | -39.90031 | 25448 ft | 470 kts | 244° |
| 2026-05-08 19:02 | -13.36441 | -39.93141 | 25632 ft | 471 kts | 244° |
| 2026-05-08 19:02 | -13.37773 | -39.96218 | 25822 ft | 472 kts | 244° |
| 2026-05-08 19:02 | -13.39091 | -39.99255 | 25990 ft | 473 kts | 244° |
| 2026-05-08 19:03 | -13.40433 | -40.02342 | 26172 ft | 474 kts | 244° |
| 2026-05-08 19:03 | -13.41777 | -40.05434 | 26324 ft | 475 kts | 244° |
| 2026-05-08 19:03 | -13.43124 | -40.08532 | 26474 ft | 476 kts | 244° |
| 2026-05-08 19:03 | -13.44478 | -40.11647 | 26643 ft | 477 kts | 244° |
| 2026-05-08 19:04 | -13.45830 | -40.14761 | 26815 ft | 478 kts | 244° |
| 2026-05-08 19:04 | -13.47180 | -40.17874 | 26982 ft | 478 kts | 244° |
| 2026-05-08 19:04 | -13.48534 | -40.20996 | 27225 ft | 477 kts | 244° |
| 2026-05-08 19:04 | -13.49882 | -40.24105 | 27523 ft | 475 kts | 244° |
| 2026-05-08 19:05 | -13.51222 | -40.27198 | 27796 ft | 474 kts | 244° |
| 2026-05-08 19:05 | -13.52561 | -40.30289 | 28019 ft | 474 kts | 244° |
| 2026-05-08 19:05 | -13.53902 | -40.33385 | 28243 ft | 474 kts | 244° |
| 2026-05-08 19:05 | -13.55240 | -40.36476 | 28521 ft | 473 kts | 244° |
| 2026-05-08 19:06 | -13.56574 | -40.39559 | 28824 ft | 471 kts | 244° |
| 2026-05-08 19:06 | -13.57902 | -40.42630 | 29132 ft | 470 kts | 244° |
| 2026-05-08 19:06 | -13.59226 | -40.45692 | 29409 ft | 469 kts | 244° |
| 2026-05-08 19:06 | -13.60547 | -40.48749 | 29696 ft | 468 kts | 244° |
| 2026-05-08 19:07 | -13.61868 | -40.51807 | 29940 ft | 468 kts | 244° |
| 2026-05-08 19:07 | -13.63190 | -40.54867 | 30189 ft | 468 kts | 244° |
| 2026-05-08 19:07 | -13.64508 | -40.57921 | 30455 ft | 467 kts | 244° |
| 2026-05-08 19:07 | -13.65823 | -40.60969 | 30756 ft | 465 kts | 244° |
| 2026-05-08 19:08 | -13.67127 | -40.63993 | 31061 ft | 463 kts | 244° |
| 2026-05-08 19:08 | -13.68432 | -40.67021 | 31321 ft | 462 kts | 244° |
| 2026-05-08 19:08 | -13.69733 | -40.70039 | 31567 ft | 462 kts | 244° |
| 2026-05-08 19:08 | -13.71032 | -40.73053 | 31808 ft | 461 kts | 244° |
| 2026-05-08 19:09 | -13.72331 | -40.76069 | 32078 ft | 461 kts | 245° |
| 2026-05-08 19:09 | -13.73625 | -40.79076 | 32377 ft | 459 kts | 245° |
| 2026-05-08 19:09 | -13.74915 | -40.82076 | 32685 ft | 457 kts | 245° |
| 2026-05-08 19:09 | -13.76197 | -40.85060 | 32981 ft | 456 kts | 245° |
| 2026-05-08 19:10 | -13.77480 | -40.88047 | 33260 ft | 455 kts | 245° |
| 2026-05-08 19:10 | -13.78757 | -40.91023 | 33551 ft | 454 kts | 245° |
| 2026-05-08 19:10 | -13.80031 | -40.93992 | 33849 ft | 453 kts | 245° |
| 2026-05-08 19:10 | -13.81300 | -40.96950 | 34127 ft | 451 kts | 245° |
| 2026-05-08 19:11 | -13.82566 | -40.99903 | 34401 ft | 450 kts | 245° |
| 2026-05-08 19:11 | -13.83825 | -41.02840 | 34665 ft | 448 kts | 245° |
| 2026-05-08 19:11 | -13.85061 | -41.05726 | 34929 ft | 446 kts | 245° |
| 2026-05-08 19:11 | -13.86311 | -41.08646 | 35173 ft | 445 kts | 245° |
| 2026-05-08 19:12 | -13.87556 | -41.11552 | 35422 ft | 443 kts | 245° |
| 2026-05-08 19:12 | -13.88799 | -41.14454 | 35675 ft | 442 kts | 245° |
| 2026-05-08 19:12 | -13.90035 | -41.17338 | 35942 ft | 440 kts | 245° |
| 2026-05-08 19:12 | -13.91266 | -41.20212 | 36166 ft | 439 kts | 245° |
| 2026-05-08 19:13 | -13.92494 | -41.23077 | 36386 ft | 438 kts | 244° |
| 2026-05-08 19:13 | -13.93721 | -41.25944 | 36608 ft | 436 kts | 244° |
| 2026-05-08 19:13 | -13.94940 | -41.28793 | 36868 ft | 434 kts | 244° |
| 2026-05-08 19:13 | -13.96157 | -41.31638 | 37123 ft | 433 kts | 244° |
| 2026-05-08 19:14 | -13.97366 | -41.34464 | 37306 ft | 432 kts | 244° |
| 2026-05-08 19:14 | -13.98576 | -41.37296 | 37507 ft | 431 kts | 244° |
| 2026-05-08 19:14 | -13.99779 | -41.40113 | 37781 ft | 428 kts | 244° |
| 2026-05-08 19:14 | -14.00973 | -41.42910 | 38003 ft | 427 kts | 244° |
| 2026-05-08 19:15 | -14.02171 | -41.45716 | 37987 ft | 429 kts | 244° |
| 2026-05-08 19:15 | -14.04574 | -41.51346 | 38004 ft | 429 kts | 244° |
| 2026-05-08 19:16 | -14.06969 | -41.56966 | 38004 ft | 427 kts | 244° |
| 2026-05-08 19:16 | -14.09350 | -41.62556 | 37997 ft | 426 kts | 244° |
| 2026-05-08 19:17 | -14.11723 | -41.68132 | 38006 ft | 424 kts | 244° |
| 2026-05-08 19:17 | -14.14089 | -41.73693 | 38006 ft | 423 kts | 244° |
| 2026-05-08 19:18 | -14.16447 | -41.79240 | 38001 ft | 423 kts | 244° |
| 2026-05-08 19:18 | -14.18806 | -41.84795 | 38003 ft | 423 kts | 244° |
| 2026-05-08 19:19 | -14.21165 | -41.90354 | 38007 ft | 423 kts | 244° |
| 2026-05-08 19:19 | -14.23125 | -41.94976 | 38004 ft | 424 kts | 244° |
| 2026-05-08 19:20 | -14.25488 | -42.00551 | 38003 ft | 425 kts | 244° |
| 2026-05-08 19:20 | -14.27851 | -42.06131 | 38010 ft | 425 kts | 244° |
| 2026-05-08 19:21 | -14.30217 | -42.11726 | 38015 ft | 426 kts | 244° |
| 2026-05-08 19:21 | -14.32586 | -42.17330 | 38013 ft | 427 kts | 244° |
| 2026-05-08 19:22 | -14.34956 | -42.22938 | 38009 ft | 427 kts | 244° |
| 2026-05-08 19:22 | -14.37326 | -42.28559 | 38016 ft | 427 kts | 244° |
| 2026-05-08 19:23 | -14.39690 | -42.34183 | 38020 ft | 427 kts | 244° |
| 2026-05-08 19:23 | -14.42052 | -42.39807 | 38010 ft | 427 kts | 244° |
| 2026-05-08 19:24 | -14.44412 | -42.45429 | 38015 ft | 427 kts | 244° |
| 2026-05-08 19:24 | -14.46771 | -42.51041 | 38011 ft | 426 kts | 244° |
| 2026-05-08 19:25 | -14.49130 | -42.56647 | 38003 ft | 426 kts | 244° |
| 2026-05-08 19:25 | -14.51484 | -42.62244 | 38005 ft | 425 kts | 244° |
| 2026-05-08 19:26 | -14.53833 | -42.67838 | 38006 ft | 424 kts | 245° |
| 2026-05-08 19:26 | -14.56148 | -42.73356 | 38003 ft | 424 kts | 244° |
| 2026-05-08 19:27 | -14.58489 | -42.78939 | 37991 ft | 424 kts | 245° |
| 2026-05-08 19:27 | -14.60827 | -42.84520 | 38001 ft | 423 kts | 245° |
| 2026-05-08 19:28 | -14.63162 | -42.90100 | 37987 ft | 423 kts | 245° |
| 2026-05-08 19:28 | -14.65497 | -42.95682 | 37985 ft | 423 kts | 245° |
| 2026-05-08 19:29 | -14.67829 | -43.01263 | 37980 ft | 423 kts | 245° |
| 2026-05-08 19:29 | -14.70141 | -43.06798 | 37976 ft | 423 kts | 245° |
| 2026-05-08 19:30 | -14.72471 | -43.12381 | 37983 ft | 423 kts | 245° |
| 2026-05-08 19:30 | -14.74798 | -43.17962 | 37982 ft | 423 kts | 245° |
| 2026-05-08 19:31 | -14.77125 | -43.23550 | 37975 ft | 423 kts | 245° |
| 2026-05-08 19:31 | -14.79449 | -43.29132 | 37972 ft | 423 kts | 245° |
| 2026-05-08 19:32 | -14.81775 | -43.34723 | 37968 ft | 423 kts | 245° |
| 2026-05-08 19:32 | -14.84097 | -43.40309 | 37972 ft | 423 kts | 245° |
| 2026-05-08 19:33 | -14.86423 | -43.45910 | 37964 ft | 423 kts | 245° |
| 2026-05-08 19:33 | -14.88744 | -43.51506 | 37969 ft | 423 kts | 245° |
| 2026-05-08 19:34 | -14.91062 | -43.57096 | 37972 ft | 423 kts | 245° |
| 2026-05-08 19:34 | -14.93382 | -43.62697 | 37966 ft | 423 kts | 245° |
| 2026-05-08 19:35 | -14.95698 | -43.68292 | 37970 ft | 423 kts | 245° |
| 2026-05-08 19:35 | -14.97993 | -43.73841 | 37966 ft | 423 kts | 245° |
| 2026-05-08 19:36 | -15.00301 | -43.79426 | 37964 ft | 422 kts | 245° |
| 2026-05-08 19:36 | -15.02606 | -43.85012 | 37970 ft | 422 kts | 246° |
| 2026-05-08 19:37 | -15.04903 | -43.90596 | 37965 ft | 422 kts | 246° |
| 2026-05-08 19:37 | -15.07194 | -43.96174 | 37975 ft | 421 kts | 245° |
| 2026-05-08 19:38 | -15.09486 | -44.01758 | 37974 ft | 421 kts | 245° |
| 2026-05-08 19:38 | -15.11773 | -44.07330 | 37974 ft | 421 kts | 246° |
| 2026-05-08 19:39 | -15.14058 | -44.12899 | 37978 ft | 420 kts | 246° |
| 2026-05-08 19:39 | -15.16343 | -44.18463 | 37977 ft | 420 kts | 246° |
| 2026-05-08 19:40 | -15.18625 | -44.24023 | 37979 ft | 420 kts | 246° |
| 2026-05-08 19:40 | -15.20904 | -44.29585 | 37977 ft | 420 kts | 246° |
| 2026-05-08 19:41 | -15.23184 | -44.35149 | 37981 ft | 420 kts | 246° |
| 2026-05-08 19:41 | -15.25462 | -44.40712 | 37977 ft | 419 kts | 246° |
| 2026-05-08 19:42 | -15.27737 | -44.46272 | 37980 ft | 419 kts | 246° |
| 2026-05-08 19:42 | -15.29992 | -44.51789 | 37977 ft | 419 kts | 246° |
| 2026-05-08 19:43 | -15.32262 | -44.57349 | 37973 ft | 419 kts | 246° |
| 2026-05-08 19:43 | -15.34529 | -44.62906 | 37972 ft | 419 kts | 246° |
| 2026-05-08 19:44 | -15.36796 | -44.68467 | 37977 ft | 419 kts | 246° |
| 2026-05-08 19:44 | -15.39061 | -44.74028 | 37973 ft | 419 kts | 246° |
| 2026-05-08 19:45 | -15.41325 | -44.79592 | 37961 ft | 419 kts | 246° |
| 2026-05-08 19:45 | -15.43587 | -44.85152 | 37966 ft | 419 kts | 246° |
| 2026-05-08 19:46 | -15.45843 | -44.90706 | 37970 ft | 418 kts | 246° |
| 2026-05-08 19:46 | -15.49229 | -44.99049 | 37968 ft | 418 kts | 246° |
| 2026-05-08 19:47 | -15.51483 | -45.04609 | 37966 ft | 418 kts | 246° |
| 2026-05-08 19:47 | -15.53735 | -45.10166 | 37967 ft | 418 kts | 246° |
| 2026-05-08 19:48 | -15.55989 | -45.15732 | 37968 ft | 418 kts | 246° |
| 2026-05-08 19:48 | -15.58240 | -45.21294 | 37966 ft | 418 kts | 247° |
| 2026-05-08 19:49 | -15.60490 | -45.26862 | 37968 ft | 418 kts | 247° |
| 2026-05-08 19:49 | -15.62735 | -45.32422 | 37982 ft | 418 kts | 247° |
| 2026-05-08 19:50 | -15.64981 | -45.37989 | 37971 ft | 418 kts | 247° |
| 2026-05-08 19:50 | -15.67225 | -45.43554 | 37970 ft | 418 kts | 247° |
| 2026-05-08 19:51 | -15.69464 | -45.49113 | 37974 ft | 417 kts | 247° |
| 2026-05-08 19:51 | -15.71700 | -45.54670 | 37969 ft | 417 kts | 247° |
| 2026-05-08 19:52 | -15.73934 | -45.60227 | 37975 ft | 417 kts | 247° |
| 2026-05-08 19:52 | -15.76168 | -45.65786 | 37971 ft | 417 kts | 247° |
| 2026-05-08 19:53 | -15.78396 | -45.71338 | 37966 ft | 417 kts | 247° |
| 2026-05-08 19:53 | -15.80621 | -45.76886 | 37965 ft | 417 kts | 247° |
| 2026-05-08 19:54 | -15.82849 | -45.82442 | 37967 ft | 416 kts | 247° |
| 2026-05-08 19:54 | -15.85076 | -45.87996 | 37966 ft | 416 kts | 247° |
| 2026-05-08 19:55 | -15.87301 | -45.93551 | 37970 ft | 416 kts | 247° |
| 2026-05-08 19:55 | -15.89520 | -45.99097 | 37972 ft | 416 kts | 247° |
| 2026-05-08 19:56 | -15.91727 | -46.04617 | 37970 ft | 416 kts | 247° |
| 2026-05-08 19:56 | -15.93960 | -46.10211 | 37979 ft | 416 kts | 247° |
| 2026-05-08 19:57 | -15.96157 | -46.15726 | 37975 ft | 416 kts | 247° |
| 2026-05-08 19:57 | -15.98370 | -46.21286 | 37988 ft | 416 kts | 248° |
| 2026-05-08 19:58 | -16.00584 | -46.26853 | 37989 ft | 417 kts | 248° |
| 2026-05-08 19:58 | -16.02794 | -46.32425 | 37984 ft | 417 kts | 249° |
| 2026-05-08 19:59 | -16.04049 | -46.38290 | 37976 ft | 418 kts | 265° |
| 2026-05-08 19:59 | -16.03618 | -46.44303 | 37985 ft | 423 kts | 282° |
| 2026-05-08 20:00 | -16.01721 | -46.50041 | 37999 ft | 415 kts | 287° |
| 2026-05-08 20:00 | -15.99636 | -46.55660 | 37997 ft | 418 kts | 287° |
| 2026-05-08 20:01 | -15.97517 | -46.61300 | 37995 ft | 420 kts | 287° |
| 2026-05-08 20:01 | -15.95382 | -46.66977 | 37986 ft | 423 kts | 288° |
| 2026-05-08 20:02 | -15.93246 | -46.72676 | 37991 ft | 424 kts | 288° |
| 2026-05-08 20:02 | -15.91115 | -46.78370 | 37717 ft | 417 kts | 288° |
| 2026-05-08 20:03 | -15.90065 | -46.81176 | 37003 ft | 419 kts | 288° |
| 2026-05-08 20:03 | -15.89003 | -46.84020 | 36091 ft | 427 kts | 288° |
| 2026-05-08 20:03 | -15.87919 | -46.86923 | 35155 ft | 436 kts | 288° |
| 2026-05-08 20:03 | -15.86811 | -46.89888 | 34254 ft | 444 kts | 289° |
| 2026-05-08 20:04 | -15.85687 | -46.92893 | 33306 ft | 451 kts | 289° |
| 2026-05-08 20:04 | -15.84541 | -46.95947 | 32383 ft | 456 kts | 289° |
| 2026-05-08 20:04 | -15.83385 | -46.99030 | 31517 ft | 460 kts | 290° |
| 2026-05-08 20:04 | -15.82218 | -47.02139 | 30676 ft | 464 kts | 290° |
| 2026-05-08 20:05 | -15.81043 | -47.05268 | 29764 ft | 468 kts | 290° |
| 2026-05-08 20:05 | -15.79856 | -47.08429 | 28707 ft | 472 kts | 290° |
| 2026-05-08 20:05 | -15.78658 | -47.11617 | 27620 ft | 476 kts | 290° |
| 2026-05-08 20:05 | -15.77450 | -47.14833 | 26535 ft | 481 kts | 290° |
| 2026-05-08 20:06 | -15.76639 | -47.16990 | 25867 ft | 483 kts | 290° |
| 2026-05-08 20:06 | -15.75027 | -47.21276 | 24935 ft | 478 kts | 291° |
| 2026-05-08 20:06 | -15.74213 | -47.23438 | 24537 ft | 474 kts | 290° |
| 2026-05-08 20:06 | -15.73181 | -47.26664 | 23903 ft | 469 kts | 283° |
| 2026-05-08 20:07 | -15.72643 | -47.29982 | 23126 ft | 466 kts | 274° |
| 2026-05-08 20:07 | -15.72585 | -47.33325 | 22317 ft | 463 kts | 265° |
| 2026-05-08 20:07 | -15.72844 | -47.36644 | 21610 ft | 459 kts | 265° |
| 2026-05-08 20:07 | -15.73115 | -47.39925 | 20948 ft | 454 kts | 265° |
| 2026-05-08 20:08 | -15.73379 | -47.43187 | 20242 ft | 452 kts | 265° |
| 2026-05-08 20:08 | -15.73629 | -47.46423 | 19568 ft | 449 kts | 265° |
| 2026-05-08 20:08 | -15.73867 | -47.49637 | 18963 ft | 445 kts | 266° |
| 2026-05-08 20:08 | -15.74096 | -47.52821 | 18375 ft | 440 kts | 266° |
| 2026-05-08 20:09 | -15.74320 | -47.55984 | 17672 ft | 437 kts | 266° |
| 2026-05-08 20:09 | -15.74539 | -47.59109 | 17030 ft | 433 kts | 266° |
| 2026-05-08 20:09 | -15.74757 | -47.62217 | 16426 ft | 428 kts | 266° |
| 2026-05-08 20:09 | -15.74971 | -47.65282 | 15837 ft | 423 kts | 266° |
| 2026-05-08 20:10 | -15.75180 | -47.68271 | 15243 ft | 419 kts | 266° |
| 2026-05-08 20:10 | -15.75389 | -47.71267 | 14894 ft | 410 kts | 266° |
| 2026-05-08 20:10 | -15.75591 | -47.74154 | 14785 ft | 394 kts | 266° |
| 2026-05-08 20:10 | -15.75785 | -47.76940 | 14684 ft | 379 kts | 266° |
| 2026-05-08 20:11 | -15.75972 | -47.79619 | 14601 ft | 365 kts | 266° |
| 2026-05-08 20:11 | -15.76151 | -47.82206 | 14598 ft | 353 kts | 266° |
| 2026-05-08 20:11 | -15.76324 | -47.84701 | 14453 ft | 344 kts | 266° |
| 2026-05-08 20:11 | -15.76492 | -47.87139 | 14390 ft | 332 kts | 266° |
| 2026-05-08 20:12 | -15.76654 | -47.89485 | 14327 ft | 321 kts | 266° |
| 2026-05-08 20:12 | -15.76811 | -47.91765 | 14261 ft | 311 kts | 267° |
| 2026-05-08 20:12 | -15.76963 | -47.93973 | 14161 ft | 302 kts | 267° |
| 2026-05-08 20:12 | -15.77111 | -47.96125 | 14028 ft | 295 kts | 267° |
| 2026-05-08 20:13 | -15.77255 | -47.98227 | 13886 ft | 289 kts | 267° |
| 2026-05-08 20:13 | -15.77392 | -48.00284 | 13722 ft | 283 kts | 267° |
| 2026-05-08 20:13 | -15.77521 | -48.02308 | 13478 ft | 279 kts | 268° |
| 2026-05-08 20:13 | -15.77649 | -48.04300 | 13252 ft | 276 kts | 268° |
| 2026-05-08 20:14 | -15.77774 | -48.06274 | 12935 ft | 273 kts | 268° |
| 2026-05-08 20:14 | -15.77899 | -48.08235 | 12514 ft | 271 kts | 268° |
| 2026-05-08 20:14 | -15.78023 | -48.10175 | 12086 ft | 270 kts | 268° |
| 2026-05-08 20:14 | -15.78148 | -48.12122 | 11709 ft | 267 kts | 268° |
| 2026-05-08 20:15 | -15.78270 | -48.14039 | 11340 ft | 264 kts | 268° |
| 2026-05-08 20:15 | -15.78391 | -48.15933 | 11026 ft | 260 kts | 268° |
| 2026-05-08 20:15 | -15.78508 | -48.17768 | 10814 ft | 251 kts | 267° |
| 2026-05-08 20:15 | -15.78636 | -48.19558 | 10536 ft | 246 kts | 262° |
| 2026-05-08 20:16 | -15.79280 | -48.21156 | 10140 ft | 248 kts | 229° |
| 2026-05-08 20:16 | -15.80675 | -48.22170 | 9759 ft | 248 kts | 199° |
| 2026-05-08 20:16 | -15.82374 | -48.22399 | 9375 ft | 247 kts | 177° |
| 2026-05-08 20:16 | -15.84072 | -48.22119 | 8905 ft | 249 kts | 156° |
| 2026-05-08 20:17 | -15.85392 | -48.21027 | 8492 ft | 242 kts | 124° |
| 2026-05-08 20:17 | -15.86212 | -48.19532 | 8181 ft | 232 kts | 114° |
| 2026-05-08 20:17 | -15.86865 | -48.18063 | 8002 ft | 219 kts | 113° |
| 2026-05-08 20:17 | -15.87496 | -48.16630 | 7635 ft | 217 kts | 112° |
| 2026-05-08 20:18 | -15.87808 | -48.15156 | 7430 ft | 206 kts | 83° |
| 2026-05-08 20:18 | -15.87654 | -48.13663 | 7197 ft | 212 kts | 85° |
| 2026-05-08 20:18 | -15.87584 | -48.12121 | 6949 ft | 216 kts | 86° |
| 2026-05-08 20:18 | -15.87501 | -48.10565 | 6691 ft | 214 kts | 85° |
| 2026-05-08 20:19 | -15.87407 | -48.09038 | 6437 ft | 210 kts | 85° |
| 2026-05-08 20:19 | -15.87310 | -48.07541 | 6164 ft | 205 kts | 84° |
| 2026-05-08 20:19 | -15.87215 | -48.06084 | 5897 ft | 199 kts | 85° |
| 2026-05-08 20:19 | -15.87123 | -48.04665 | 5657 ft | 194 kts | 84° |
| 2026-05-08 20:20 | -15.87034 | -48.03284 | 5426 ft | 189 kts | 84° |
| 2026-05-08 20:20 | -15.86946 | -48.01931 | 5187 ft | 186 kts | 85° |
| 2026-05-08 20:20 | -15.86860 | -48.00600 | 4962 ft | 182 kts | 84° |
| 2026-05-08 20:20 | -15.86779 | -47.99328 | 4758 ft | 168 kts | 84° |
| 2026-05-08 20:21 | -15.86701 | -47.98139 | 4509 ft | 165 kts | 84° |
| 2026-05-08 20:21 | -15.86627 | -47.96974 | 4314 ft | 158 kts | 84° |
| 2026-05-08 20:21 | -15.86554 | -47.95853 | 4125 ft | 155 kts | 84° |
| 2026-05-08 20:21 | -15.86480 | -47.94728 | 3888 ft | 157 kts | 86° |
| 2026-05-08 20:22 | -15.86410 | -47.93605 | 3681 ft | 155 kts | 86° |
| 2026-05-08 20:22 | -15.86339 | -47.92488 | 3471 ft | 155 kts | 86° |
| 2026-05-08 20:22 | -15.86276 | -47.91494 | 3463 ft | 110 kts | 86° |
| 2026-05-08 20:22 | -15.86239 | -47.90923 | 3475 ft | 47 kts | 87° |
| 2026-05-08 20:23 | -15.86301 | -47.90796 | 3480 ft | 15 kts | 133° |
| 2026-05-08 20:23 | -15.86373 | -47.90718 | 3484 ft | 15 kts | 148° |
| 2026-05-08 20:23 | -15.86424 | -47.90785 | 3482 ft | 14 kts | 266° |
| 2026-05-08 20:23 | -15.86431 | -47.90893 | 3478 ft | 16 kts | 266° |
| 2026-05-08 20:24 | -15.86438 | -47.91017 | 3472 ft | 18 kts | 266° |
| 2026-05-08 20:24 | -15.86447 | -47.91150 | 3468 ft | 18 kts | 266° |
| 2026-05-08 20:24 | -15.86456 | -47.91279 | 3468 ft | 18 kts | 266° |
| 2026-05-08 20:24 | -15.86464 | -47.91404 | 3466 ft | 17 kts | 266° |
| 2026-05-08 20:25 | -15.86471 | -47.91524 | 3463 ft | 16 kts | 266° |
| 2026-05-08 20:25 | -15.86478 | -47.91639 | 3464 ft | 16 kts | 266° |
| 2026-05-08 20:25 | -15.86485 | -47.91749 | 3467 ft | 15 kts | 266° |
| 2026-05-08 20:25 | -15.86546 | -47.91813 | 3469 ft | 14 kts | 176° |
| 2026-05-08 20:26 | -15.86616 | -47.91861 | 3470 ft | 13 kts | 267° |
| 2026-05-08 20:26 | -15.86635 | -47.91896 | 3470 ft | 6 kts | 193° |
| 2026-05-08 20:26 | -15.86674 | -47.91894 | 3471 ft | 6 kts | 176° |
| 2026-05-08 20:26 | -15.86707 | -47.91892 | 3470 ft | 1 kts | 176° |
| 2026-05-08 20:27 | -15.86708 | -47.91892 | 3470 ft | 0 kts | 176° |